createdAt,value
2023-02-08T00:03:40.521Z,8.13
2023-02-08T00:06:09.463Z,6.75
2023-02-08T00:08:37.884Z,9.38
2023-02-08T00:11:06.134Z,7.20
2023-02-08T00:13:34.068Z,7.93
2023-02-08T00:16:01.568Z,6.97
2023-02-08T00:18:28.840Z,8.63
2023-02-08T00:20:57.282Z,8.90
2023-02-08T00:23:26.105Z,8.80
2023-02-08T00:25:53.431Z,7.13
2023-02-08T00:28:20.812Z,8.07
2023-02-08T00:30:48.404Z,7.30
2023-02-08T00:33:15.727Z,8.50
2023-02-08T00:35:42.985Z,7.85
2023-02-08T00:38:10.370Z,7.60
2023-02-08T00:40:37.961Z,8.38
2023-02-08T00:43:06.863Z,8.65
2023-02-08T00:45:34.661Z,8.95
2023-02-08T00:48:01.909Z,8.77
2023-02-08T00:50:29.170Z,8.70
2023-02-08T00:52:58.177Z,8.48
2023-02-08T00:55:25.516Z,8.82
2023-02-08T00:57:52.750Z,9.00
2023-02-08T01:00:20.248Z,11.80
2023-02-08T01:02:47.509Z,9.25
2023-02-08T01:05:14.816Z,9.15
2023-02-08T01:07:42.106Z,11.25
2023-02-08T01:10:12.329Z,9.10
2023-02-08T01:12:39.801Z,10.00
2023-02-08T01:15:07.490Z,10.00
2023-02-08T01:17:34.791Z,9.93
2023-02-08T01:20:02.031Z,12.07
2023-02-08T01:22:30.269Z,10.80
2023-02-08T01:24:57.534Z,10.57
2023-02-08T01:27:24.788Z,11.00
2023-02-08T01:29:52.662Z,13.63
2023-02-08T01:32:20.035Z,11.48
2023-02-08T01:34:47.517Z,9.88
2023-02-08T01:37:14.799Z,13.20
2023-02-08T01:39:42.017Z,10.38
2023-02-08T01:42:14.803Z,9.70
2023-02-08T01:45:15.959Z,10.73
2023-02-08T01:47:46.542Z,9.55
2023-02-08T01:50:15.694Z,10.48
2023-02-08T01:52:45.598Z,10.30
2023-02-08T01:55:18.216Z,9.90
2023-02-08T01:57:46.170Z,10.35
2023-02-08T02:00:18.406Z,10.57
2023-02-08T02:02:47.870Z,10.48
2023-02-08T02:05:17.038Z,11.05
2023-02-08T02:07:44.729Z,9.93
2023-02-08T02:10:29.050Z,9.77
2023-02-08T02:13:03.755Z,9.50
2023-02-08T02:17:58.364Z,9.98
2023-02-08T02:21:04.687Z,9.77
2023-02-08T02:24:03.510Z,10.15
2023-02-08T02:26:45.460Z,10.80
2023-02-08T02:29:30.419Z,9.73
2023-02-08T02:32:12.237Z,9.30
2023-02-08T02:35:05.256Z,11.05
2023-02-08T02:37:49.562Z,9.65
2023-02-08T02:40:16.816Z,9.52
2023-02-08T02:43:12.204Z,9.77
2023-02-08T02:48:48.349Z,10.95
2023-02-08T02:51:44.768Z,9.77
2023-02-08T02:54:26.671Z,10.50
2023-02-08T02:56:59.713Z,9.57
2023-02-08T02:59:28.085Z,10.77
2023-02-08T03:01:56.754Z,9.88
2023-02-08T03:04:33.317Z,12.85
2023-02-08T03:07:09.805Z,11.38
2023-02-08T03:09:46.001Z,9.43
2023-02-08T03:12:39.814Z,10.93
2023-02-08T03:15:40.245Z,9.15
2023-02-08T03:18:42.620Z,8.73
2023-02-08T03:21:20.404Z,9.65
2023-02-08T03:23:47.616Z,9.52
2023-02-08T03:26:31.603Z,8.73
2023-02-08T03:29:03.035Z,9.70
2023-02-08T03:31:48.953Z,9.00
2023-02-08T03:34:46.261Z,9.45
2023-02-08T03:37:27.792Z,9.40
2023-02-08T03:40:02.697Z,9.02
2023-02-08T03:42:33.811Z,8.45
2023-02-08T03:45:30.000Z,7.38
2023-02-08T03:48:00.515Z,9.32
2023-02-08T03:50:34.419Z,8.90
2023-02-08T03:53:02.138Z,9.05
2023-02-08T03:55:33.496Z,7.93
2023-02-08T03:58:16.029Z,7.97
2023-02-08T04:00:49.244Z,9.98
2023-02-08T04:03:27.274Z,8.63
2023-02-08T04:05:55.382Z,8.15
2023-02-08T04:08:23.086Z,8.93
2023-02-08T04:10:50.428Z,9.80
2023-02-08T04:13:17.853Z,7.78
2023-02-08T04:15:45.280Z,8.07
2023-02-08T04:18:13.271Z,9.73
2023-02-08T04:20:40.837Z,9.02
2023-02-08T04:23:08.223Z,9.07
2023-02-08T04:25:35.488Z,8.82
2023-02-08T04:28:02.812Z,7.95
2023-02-08T04:30:30.130Z,9.15
2023-02-08T04:32:59.950Z,9.77
2023-02-08T04:35:27.324Z,8.43
2023-02-08T04:37:54.623Z,7.40
2023-02-08T04:40:21.912Z,9.23
2023-02-08T04:42:49.771Z,8.73
2023-02-08T04:45:17.074Z,8.25
2023-02-08T04:47:44.297Z,8.48
2023-02-08T04:50:11.537Z,7.45
2023-02-08T04:52:38.772Z,7.18
2023-02-08T04:55:06.425Z,8.02
2023-02-08T04:57:33.680Z,7.75
2023-02-08T05:00:00.934Z,7.15
2023-02-08T05:02:28.479Z,7.20
2023-02-08T05:04:55.899Z,6.97
2023-02-08T05:07:23.293Z,7.70
2023-02-08T05:09:50.553Z,6.78
2023-02-08T05:12:17.849Z,7.10
2023-02-08T05:14:45.094Z,6.95
2023-02-08T05:17:12.359Z,7.82
2023-02-08T05:19:39.627Z,8.40
2023-02-08T05:22:06.908Z,7.57
2023-02-08T05:24:34.180Z,9.23
2023-02-08T05:27:01.453Z,8.68
2023-02-08T05:29:28.843Z,12.48
2023-02-08T05:31:56.205Z,10.00
2023-02-08T05:34:23.569Z,17.38
2023-02-08T05:36:50.877Z,13.65
2023-02-08T05:39:18.238Z,16.10
2023-02-08T05:41:45.529Z,13.80
2023-02-08T05:44:12.819Z,11.63
2023-02-08T05:46:40.088Z,12.90
2023-02-08T05:49:08.171Z,12.05
2023-02-08T05:51:35.467Z,11.25
2023-02-08T05:54:02.727Z,14.75
2023-02-08T05:56:30.043Z,8.25
2023-02-08T05:59:00.291Z,12.13
2023-02-08T06:01:27.842Z,8.98
2023-02-08T06:03:55.545Z,8.95
2023-02-08T06:06:22.924Z,10.13
2023-02-08T06:08:50.262Z,11.00
2023-02-08T06:11:19.293Z,8.52
2023-02-08T06:13:47.342Z,9.73
2023-02-08T06:16:15.336Z,9.23
2023-02-08T06:18:42.688Z,8.82
2023-02-08T06:21:10.051Z,8.43
2023-02-08T06:23:37.265Z,12.20
2023-02-08T06:26:04.706Z,13.38
2023-02-08T06:28:32.028Z,11.30
2023-02-08T06:30:59.317Z,10.63
2023-02-08T06:33:26.623Z,12.07
2023-02-08T06:35:54.101Z,12.23
2023-02-08T06:38:21.376Z,10.40
2023-02-08T06:40:49.818Z,9.95
2023-02-08T06:43:18.694Z,9.95
2023-02-08T06:45:47.360Z,10.18
2023-02-08T06:48:15.048Z,15.63
2023-02-08T06:50:42.819Z,13.52
2023-02-08T06:53:10.267Z,19.33
2023-02-08T06:55:37.491Z,15.10
2023-02-08T06:58:04.711Z,14.57
2023-02-08T07:00:32.137Z,15.88
2023-02-08T07:03:00.772Z,10.75
2023-02-08T07:05:28.129Z,12.38
2023-02-08T07:07:55.454Z,13.07
2023-02-08T07:10:22.768Z,10.55
2023-02-08T07:12:50.013Z,13.02
2023-02-08T07:15:17.309Z,16.05
2023-02-08T07:17:44.563Z,13.13
2023-02-08T07:20:12.336Z,12.60
2023-02-08T07:22:40.866Z,10.07
2023-02-08T07:25:09.299Z,14.38
2023-02-08T07:27:36.781Z,18.80
2023-02-08T07:30:05.335Z,16.13
2023-02-08T07:32:34.708Z,16.73
2023-02-08T07:35:02.259Z,31.35
2023-02-08T07:37:29.527Z,20.02
2023-02-08T07:39:56.802Z,18.83
2023-02-08T07:42:24.060Z,18.33
2023-02-08T07:44:51.333Z,20.10
2023-02-08T07:47:18.710Z,15.57
2023-02-08T07:49:46.009Z,14.10
2023-02-08T07:52:13.256Z,14.27
2023-02-08T07:54:40.507Z,11.27
2023-02-08T07:57:08.251Z,15.13
2023-02-08T07:59:35.676Z,15.43
2023-02-08T08:02:03.087Z,12.15
2023-02-08T08:04:30.417Z,11.90
2023-02-08T08:06:57.792Z,16.75
2023-02-08T08:09:25.116Z,12.13
2023-02-08T08:11:52.398Z,12.63
2023-02-08T08:14:19.776Z,11.50
2023-02-08T08:16:47.077Z,12.55
2023-02-08T08:19:14.275Z,11.70
2023-02-08T08:21:41.504Z,12.95
2023-02-08T08:24:08.903Z,11.02
2023-02-08T08:26:36.200Z,16.10
2023-02-08T08:29:03.581Z,16.23
2023-02-08T08:31:31.268Z,15.88
2023-02-08T08:33:58.711Z,16.33
2023-02-08T08:36:25.961Z,13.57
2023-02-08T08:38:53.328Z,12.48
2023-02-08T08:41:23.082Z,12.90
2023-02-08T08:43:50.477Z,12.63
2023-02-08T08:46:17.908Z,13.98
2023-02-08T08:48:45.981Z,14.52
2023-02-08T08:51:14.284Z,12.90
2023-02-08T08:53:41.571Z,14.73
2023-02-08T08:56:08.954Z,14.50
2023-02-08T08:58:36.282Z,13.20
2023-02-08T09:01:03.701Z,15.32
2023-02-08T09:03:31.207Z,16.02
2023-02-08T09:05:58.546Z,14.75
2023-02-08T09:08:25.845Z,14.70
2023-02-08T09:10:53.136Z,14.18
2023-02-08T09:13:21.727Z,16.05
2023-02-08T09:15:49.860Z,14.82
2023-02-08T09:18:17.306Z,14.00
2023-02-08T09:20:45.072Z,14.18
2023-02-08T09:23:14.489Z,17.02
2023-02-08T09:25:42.147Z,14.52
2023-02-08T09:28:09.495Z,14.43
2023-02-08T09:30:36.818Z,14.98
2023-02-08T09:33:04.105Z,13.80
2023-02-08T09:35:31.299Z,16.63
2023-02-08T09:38:02.309Z,14.32
2023-02-08T09:40:44.017Z,15.63
2023-02-08T09:43:29.771Z,13.05
2023-02-08T09:46:03.009Z,16.13
2023-02-08T09:48:36.224Z,14.50
2023-02-08T09:51:09.728Z,15.32
2023-02-08T09:53:47.356Z,12.95
2023-02-08T09:56:18.841Z,13.90
2023-02-08T09:58:50.085Z,16.55
2023-02-08T10:01:23.881Z,14.25
2023-02-08T10:03:59.737Z,14.20
2023-02-08T10:06:27.032Z,15.63
2023-02-08T10:08:54.814Z,15.38
2023-02-08T10:11:40.864Z,18.25
2023-02-08T10:14:17.134Z,17.15
2023-02-08T10:17:19.558Z,20.73
2023-02-08T10:20:07.946Z,17.00
2023-02-08T10:22:56.210Z,16.92
2023-02-08T10:25:37.875Z,16.63
2023-02-08T10:28:14.398Z,14.13
2023-02-08T10:30:49.551Z,20.40
2023-02-08T10:33:32.144Z,18.70
2023-02-08T10:35:59.531Z,21.73
2023-02-08T10:38:45.373Z,21.58
2023-02-08T10:41:44.905Z,19.35
2023-02-08T10:44:28.117Z,18.00
2023-02-08T10:47:16.186Z,18.85
2023-02-08T10:49:46.176Z,14.75
2023-02-08T10:52:13.573Z,18.98
2023-02-08T10:54:40.918Z,17.85
2023-02-08T10:57:17.748Z,22.55
2023-02-08T10:59:51.270Z,17.58
2023-02-08T11:02:33.808Z,22.52
2023-02-08T11:05:12.457Z,21.13
2023-02-08T11:07:40.367Z,16.77
2023-02-08T11:10:19.674Z,15.20
2023-02-08T11:13:07.039Z,14.93
2023-02-08T11:15:48.709Z,14.93
2023-02-08T11:18:25.037Z,14.45
2023-02-08T11:20:58.473Z,17.15
2023-02-08T11:23:38.247Z,13.65
2023-02-08T11:26:34.090Z,14.75
2023-02-08T11:29:14.857Z,20.08
2023-02-08T11:31:59.579Z,25.85
2023-02-08T11:34:38.427Z,24.00
2023-02-08T11:37:14.503Z,31.45
2023-02-08T11:39:50.082Z,24.05
2023-02-08T11:42:31.084Z,24.90
2023-02-08T11:44:59.843Z,30.75
2023-02-08T11:47:34.046Z,23.17
2023-02-08T11:50:21.456Z,29.05
2023-02-08T11:53:04.933Z,37.35
2023-02-08T11:55:34.229Z,29.27
2023-02-08T11:58:23.713Z,26.67
2023-02-08T12:01:06.964Z,20.25
2023-02-08T12:03:40.020Z,19.10
2023-02-08T12:06:07.444Z,21.05
2023-02-08T12:08:49.286Z,20.65
2023-02-08T12:11:41.006Z,18.15
2023-02-08T12:14:24.400Z,13.52
2023-02-08T12:17:22.760Z,10.55
2023-02-08T12:19:50.123Z,17.20
2023-02-08T12:22:20.371Z,14.38
2023-02-08T12:25:13.987Z,17.60
2023-02-08T12:27:54.588Z,16.30
2023-02-08T12:30:41.606Z,14.43
2023-02-08T12:33:37.613Z,18.45
2023-02-08T12:36:34.424Z,12.98
2023-02-08T12:39:48.742Z,11.60
2023-02-08T12:43:01.754Z,11.40
2023-02-08T12:45:50.481Z,7.75
2023-02-08T12:48:37.297Z,10.65
2023-02-08T12:51:46.973Z,12.82
2023-02-08T12:54:23.067Z,12.75
2023-02-08T12:57:01.576Z,12.13
2023-02-08T12:59:47.471Z,17.85
2023-02-08T13:02:39.299Z,10.60
2023-02-08T13:05:13.947Z,8.70
2023-02-08T13:10:30.364Z,9.10
2023-02-08T13:13:04.832Z,11.02
2023-02-08T13:15:44.497Z,9.63
2023-02-08T13:18:35.836Z,10.27
2023-02-08T13:21:08.272Z,11.43
2023-02-08T13:23:51.982Z,8.13
2023-02-08T13:26:31.645Z,9.75
2023-02-08T13:29:02.522Z,9.00
2023-02-08T13:31:39.990Z,8.20
2023-02-08T13:34:42.956Z,7.13
2023-02-08T13:37:28.407Z,7.40
2023-02-08T13:40:06.489Z,9.57
2023-02-08T13:42:48.428Z,9.10
2023-02-08T13:45:34.245Z,7.13
2023-02-08T13:48:07.367Z,10.45
2023-02-08T13:50:39.994Z,5.40
2023-02-08T13:53:07.528Z,7.05
2023-02-08T13:56:05.666Z,7.20
2023-02-08T13:58:50.967Z,9.70
2023-02-08T14:01:24.265Z,15.15
2023-02-08T14:04:09.930Z,7.95
2023-02-08T14:06:41.714Z,8.07
2023-02-08T14:09:44.349Z,6.97
2023-02-08T14:12:35.349Z,15.30
2023-02-08T14:15:17.928Z,8.15
2023-02-08T14:17:58.623Z,9.05
2023-02-08T14:20:36.195Z,9.23
2023-02-08T14:23:07.270Z,7.28
2023-02-08T14:25:46.627Z,8.63
2023-02-08T14:28:30.790Z,8.98
2023-02-08T14:31:01.151Z,9.40
2023-02-08T14:33:38.801Z,6.20
2023-02-08T14:36:28.056Z,7.20
2023-02-08T14:39:21.582Z,8.05
2023-02-08T14:41:50.567Z,13.48
2023-02-08T14:44:41.620Z,6.35
2023-02-08T14:47:11.910Z,8.73
2023-02-08T14:49:45.333Z,10.35
2023-02-08T14:52:25.404Z,9.85
2023-02-08T14:55:06.062Z,8.52
2023-02-08T14:57:36.298Z,21.15
2023-02-08T15:00:15.846Z,5.65
2023-02-08T15:02:46.137Z,11.10
2023-02-08T15:05:25.940Z,6.55
2023-02-08T15:08:00.070Z,9.43
2023-02-08T15:10:30.347Z,8.80
2023-02-08T15:13:02.413Z,14.32
2023-02-08T15:15:36.611Z,8.70
2023-02-08T15:18:06.195Z,7.45
2023-02-08T15:20:37.072Z,8.77
2023-02-08T15:23:07.261Z,9.32
2023-02-08T15:25:36.815Z,6.95
2023-02-08T15:28:20.809Z,9.45
2023-02-08T15:30:58.105Z,8.10
2023-02-08T15:33:26.354Z,5.85
2023-02-08T15:36:08.685Z,10.10
2023-02-08T15:38:38.710Z,7.80
2023-02-08T15:41:12.139Z,5.60
2023-02-08T15:43:41.368Z,7.22
2023-02-08T15:46:23.567Z,6.25
2023-02-08T15:48:52.053Z,7.32
2023-02-08T15:51:23.154Z,7.00
2023-02-08T15:53:54.554Z,9.13
2023-02-08T15:56:38.615Z,10.45
2023-02-08T15:59:16.376Z,6.95
2023-02-08T16:01:47.532Z,13.77
2023-02-08T16:04:14.991Z,9.18
2023-02-08T16:06:55.043Z,6.47
2023-02-08T16:09:29.942Z,8.85
2023-02-08T16:12:00.449Z,8.57
2023-02-08T16:14:30.368Z,6.55
2023-02-08T16:16:59.572Z,7.50
2023-02-08T16:19:28.091Z,9.38
2023-02-08T16:22:22.148Z,13.45
2023-02-08T16:24:50.970Z,25.23
2023-02-08T16:27:30.184Z,47.72
2023-02-08T16:29:58.134Z,30.35
2023-02-08T16:32:32.479Z,29.60
2023-02-08T16:35:10.494Z,18.25
2023-02-08T16:37:38.040Z,13.70
2023-02-08T16:40:26.715Z,27.42
2023-02-08T16:43:13.898Z,17.45
2023-02-08T16:45:41.184Z,21.55
2023-02-08T16:48:33.205Z,15.52
2023-02-08T16:51:01.743Z,9.82
2023-02-08T16:53:41.339Z,17.13
2023-02-08T16:56:10.538Z,11.95
2023-02-08T16:58:38.068Z,10.05
2023-02-08T17:01:05.686Z,11.15
2023-02-08T17:03:33.122Z,21.73
2023-02-08T17:06:01.068Z,13.77
2023-02-08T17:08:28.393Z,13.77
2023-02-08T17:10:58.840Z,12.25
2023-02-08T17:13:29.379Z,11.80
2023-02-08T17:16:00.167Z,11.70
2023-02-08T17:18:27.523Z,14.25
2023-02-08T17:20:59.605Z,11.65
2023-02-08T17:23:27.200Z,11.68
2023-02-08T17:25:54.546Z,18.88
2023-02-08T17:28:22.540Z,11.98
2023-02-08T17:30:50.722Z,14.60
2023-02-08T17:33:18.670Z,16.30
2023-02-08T17:35:48.748Z,13.13
2023-02-08T17:38:16.256Z,14.07
2023-02-08T17:40:44.337Z,14.60
2023-02-08T17:43:13.370Z,12.68
2023-02-08T17:45:42.768Z,13.23
2023-02-08T17:48:10.569Z,15.98
2023-02-08T17:50:40.554Z,13.13
2023-02-08T17:53:08.451Z,17.13
2023-02-08T17:55:35.744Z,11.63
2023-02-08T17:58:03.024Z,22.60
2023-02-08T18:00:30.384Z,18.90
2023-02-08T18:03:00.510Z,21.58
2023-02-08T18:05:28.852Z,20.90
2023-02-08T18:07:57.308Z,16.48
2023-02-08T18:10:25.464Z,18.77
2023-02-08T18:12:53.167Z,14.57
2023-02-08T18:15:21.945Z,15.45
2023-02-08T18:17:52.516Z,17.42
2023-02-08T18:20:19.980Z,13.27
2023-02-08T18:22:47.329Z,16.67
2023-02-08T18:25:16.134Z,12.77
2023-02-08T18:27:43.407Z,16.20
2023-02-08T18:30:12.422Z,15.00
2023-02-08T18:32:40.142Z,14.30
2023-02-08T18:35:08.823Z,14.85
2023-02-08T18:37:37.556Z,13.63
2023-02-08T18:40:07.360Z,12.70
2023-02-08T18:42:36.174Z,11.45
2023-02-08T18:45:04.947Z,11.60
2023-02-08T18:47:32.550Z,13.13
2023-02-08T18:49:59.871Z,11.20
2023-02-08T18:52:27.311Z,12.00
2023-02-08T18:54:54.616Z,13.02
2023-02-08T18:57:21.878Z,11.90
2023-02-08T18:59:49.134Z,13.63
2023-02-08T19:02:21.720Z,10.27
2023-02-08T19:04:49.180Z,10.70
2023-02-08T19:07:16.531Z,13.55
2023-02-08T19:09:44.043Z,12.95
2023-02-08T19:12:15.302Z,13.07
2023-02-08T19:14:43.667Z,13.52
2023-02-08T19:17:13.612Z,13.35
2023-02-08T19:19:42.162Z,12.50
2023-02-08T19:22:09.808Z,12.55
2023-02-08T19:24:37.105Z,12.48
2023-02-08T19:27:04.972Z,12.02
2023-02-08T19:29:33.552Z,11.20
2023-02-08T19:32:01.373Z,12.30
2023-02-08T19:34:28.697Z,11.75
2023-02-08T19:36:56.025Z,11.25
2023-02-08T19:39:26.035Z,12.93
2023-02-08T19:41:53.833Z,12.13
2023-02-08T19:44:21.812Z,10.40
2023-02-08T19:46:54.793Z,12.30
2023-02-08T19:49:23.708Z,12.80
2023-02-08T19:51:51.207Z,12.15
2023-02-08T19:54:19.887Z,9.57
2023-02-08T19:56:47.444Z,10.85
2023-02-08T19:59:23.884Z,11.80
2023-02-08T20:01:51.668Z,10.57
2023-02-08T20:04:19.234Z,12.38
2023-02-08T20:06:46.753Z,10.65
2023-02-08T20:09:16.638Z,9.75
2023-02-08T20:11:56.467Z,11.23
2023-02-08T20:14:25.863Z,10.40
2023-02-08T20:16:53.294Z,10.13
2023-02-08T20:19:20.532Z,10.13
2023-02-08T20:21:47.892Z,8.85
2023-02-08T20:24:15.396Z,9.25
2023-02-08T20:26:45.148Z,9.90
2023-02-08T20:29:13.451Z,9.75
2023-02-08T20:31:43.167Z,9.95
2023-02-08T20:34:13.683Z,9.07
2023-02-08T20:36:44.965Z,9.50
2023-02-08T20:39:16.099Z,10.55
2023-02-08T20:41:44.370Z,9.48
2023-02-08T20:44:13.675Z,9.05
2023-02-08T20:46:43.085Z,9.43
2023-02-08T20:49:11.877Z,8.43
2023-02-08T20:51:39.248Z,10.07
2023-02-08T20:54:06.572Z,8.65
2023-02-08T20:56:35.976Z,8.50
2023-02-08T20:59:08.846Z,9.85
2023-02-08T21:01:36.898Z,8.63
2023-02-08T21:04:05.451Z,9.57
2023-02-08T21:06:35.169Z,9.25
2023-02-08T21:09:12.413Z,8.23
2023-02-08T21:11:39.941Z,7.97
2023-02-08T21:14:13.576Z,8.10
2023-02-08T21:16:41.399Z,8.40
2023-02-08T21:19:10.741Z,8.60
2023-02-08T21:21:38.053Z,8.73
2023-02-08T21:24:05.713Z,8.75
2023-02-08T21:26:33.190Z,8.70
2023-02-08T21:29:00.628Z,7.85
2023-02-08T21:31:28.044Z,8.27
2023-02-08T21:33:55.352Z,8.07
2023-02-08T21:36:24.393Z,7.45
2023-02-08T21:38:52.070Z,7.80
2023-02-08T21:41:25.461Z,8.38
2023-02-08T21:43:56.037Z,8.02
2023-02-08T21:46:28.430Z,8.18
2023-02-08T21:49:15.681Z,8.48
2023-02-08T21:52:02.143Z,8.32
2023-02-08T21:54:41.392Z,9.27
2023-02-08T21:57:19.646Z,8.88
2023-02-08T21:59:50.163Z,8.32
2023-02-08T22:02:29.156Z,8.25
2023-02-08T22:04:58.275Z,12.13
2023-02-08T22:07:26.695Z,28.75
2023-02-08T22:09:54.382Z,29.50
2023-02-08T22:12:23.322Z,30.20
2023-02-08T22:14:51.610Z,33.20
2023-02-08T22:17:19.133Z,34.08
2023-02-08T22:19:46.414Z,37.08
2023-02-08T22:22:13.631Z,28.52
2023-02-08T22:24:40.938Z,24.83
2023-02-08T22:27:08.185Z,37.17
2023-02-08T22:29:35.636Z,32.78
2023-02-08T22:32:03.078Z,30.25
2023-02-08T22:34:30.451Z,28.17
2023-02-08T22:36:57.906Z,22.02
2023-02-08T22:39:25.309Z,18.42
2023-02-08T22:41:52.568Z,28.58
2023-02-08T22:44:19.979Z,22.17
2023-02-08T22:46:47.307Z,22.73
2023-02-08T22:49:14.610Z,26.77
2023-02-08T22:51:41.908Z,24.15
2023-02-08T22:54:09.196Z,19.33
2023-02-08T22:56:36.632Z,18.17
2023-02-08T22:59:03.935Z,16.23
2023-02-08T23:01:31.258Z,17.00
2023-02-08T23:04:00.400Z,22.83
2023-02-08T23:06:28.141Z,16.52
2023-02-08T23:08:55.370Z,14.75
2023-02-08T23:11:22.869Z,16.08
2023-02-08T23:13:50.337Z,20.52
2023-02-08T23:16:19.109Z,11.32
2023-02-08T23:18:46.990Z,19.77
2023-02-08T23:21:18.046Z,14.30
2023-02-08T23:23:47.272Z,11.32
2023-02-08T23:26:17.498Z,15.07
2023-02-08T23:28:45.586Z,14.52
2023-02-08T23:31:14.459Z,13.13
2023-02-08T23:33:41.957Z,11.73
2023-02-08T23:36:16.160Z,11.02
2023-02-08T23:38:44.326Z,14.75
2023-02-08T23:41:14.213Z,9.82
2023-02-08T23:43:41.554Z,14.65
2023-02-08T23:46:11.606Z,12.45
2023-02-08T23:48:39.484Z,9.48
2023-02-08T23:51:07.898Z,10.50
2023-02-08T23:53:36.799Z,10.15
2023-02-08T23:56:26.765Z,9.23
2023-02-08T23:58:56.604Z,10.18
